createdAt,value
2022-08-29T00:01:05.657Z,4.10
2022-08-29T00:03:33.420Z,4.27
2022-08-29T00:06:01.299Z,8.70
2022-08-29T00:08:29.231Z,9.23
2022-08-29T00:10:56.844Z,3.90
2022-08-29T00:13:25.756Z,4.13
2022-08-29T00:15:53.264Z,5.50
2022-08-29T00:18:21.732Z,4.23
2022-08-29T00:20:49.572Z,5.23
2022-08-29T00:23:17.625Z,6.47
2022-08-29T00:25:45.153Z,6.10
2022-08-29T00:28:13.300Z,3.30
2022-08-29T00:30:42.729Z,4.70
2022-08-29T00:33:10.233Z,5.70
2022-08-29T00:35:40.495Z,3.83
2022-08-29T00:38:10.208Z,5.63
2022-08-29T00:40:40.743Z,3.70
2022-08-29T00:43:09.364Z,9.32
2022-08-29T00:45:37.620Z,4.60
2022-08-29T00:48:11.413Z,5.20
2022-08-29T00:50:41.753Z,5.73
2022-08-29T00:53:14.071Z,5.07
2022-08-29T00:55:42.789Z,4.40
2022-08-29T00:58:25.769Z,2.90
2022-08-29T01:00:54.013Z,3.90
2022-08-29T01:03:22.970Z,3.67
2022-08-29T01:05:50.562Z,3.30
2022-08-29T01:08:18.104Z,6.73
2022-08-29T01:11:03.346Z,11.57
2022-08-29T01:13:35.686Z,3.40
2022-08-29T01:16:04.627Z,4.60
2022-08-29T01:18:36.052Z,4.83
2022-08-29T01:21:13.437Z,5.23
2022-08-29T01:23:45.805Z,4.27
2022-08-29T01:26:14.853Z,2.40
2022-08-29T01:28:46.258Z,6.47
2022-08-29T01:31:51.491Z,6.10
2022-08-29T01:34:05.336Z,4.65
2022-08-29T01:36:37.430Z,4.13
2022-08-29T01:39:06.213Z,4.93
2022-08-29T01:41:36.018Z,3.67
2022-08-29T01:44:10.643Z,8.30
2022-08-29T01:46:38.441Z,9.30
2022-08-29T01:49:08.815Z,5.07
2022-08-29T01:51:37.129Z,5.83
2022-08-29T01:54:05.995Z,4.00
2022-08-29T01:56:37.381Z,3.00
2022-08-29T01:59:08.581Z,6.10
2022-08-29T02:01:38.907Z,6.07
2022-08-29T02:04:09.021Z,6.00
2022-08-29T02:06:37.517Z,4.93
2022-08-29T02:09:05.968Z,5.75
2022-08-29T02:11:36.379Z,5.00
2022-08-29T02:14:04.593Z,7.23
2022-08-29T02:16:32.903Z,3.93
2022-08-29T02:19:00.733Z,8.10
2022-08-29T02:21:30.838Z,8.00
2022-08-29T02:24:15.914Z,7.57
2022-08-29T02:26:50.549Z,3.90
2022-08-29T02:29:18.113Z,3.40
2022-08-29T02:31:45.636Z,9.80
2022-08-29T02:34:13.868Z,5.73
2022-08-29T02:36:41.728Z,6.83
2022-08-29T02:39:11.575Z,5.17
2022-08-29T02:41:39.295Z,3.20
2022-08-29T02:44:10.839Z,3.33
2022-08-29T02:46:38.412Z,3.40
2022-08-29T02:49:06.268Z,5.53
2022-08-29T02:51:35.657Z,13.40
2022-08-29T02:54:04.397Z,4.00
2022-08-29T02:56:31.948Z,4.70
2022-08-29T02:58:59.792Z,5.00
2022-08-29T03:01:31.115Z,5.03
2022-08-29T03:03:59.016Z,5.78
2022-08-29T03:06:26.590Z,8.43
2022-08-29T03:08:54.319Z,5.17
2022-08-29T03:11:22.594Z,8.83
2022-08-29T03:13:50.106Z,5.50
2022-08-29T03:16:18.971Z,9.63
2022-08-29T03:18:47.853Z,10.07
2022-08-29T03:21:17.489Z,5.13
2022-08-29T03:23:45.153Z,4.43
2022-08-29T03:26:12.748Z,9.30
2022-08-29T03:28:40.264Z,5.73
2022-08-29T03:31:07.872Z,11.17
2022-08-29T03:33:35.629Z,5.20
2022-08-29T03:36:13.793Z,5.57
2022-08-29T03:38:43.331Z,6.20
2022-08-29T03:41:10.888Z,8.53
2022-08-29T03:43:38.682Z,4.50
2022-08-29T03:46:06.517Z,5.87
2022-08-29T03:48:34.210Z,5.03
2022-08-29T03:51:01.877Z,5.23
2022-08-29T03:53:32.511Z,6.10
2022-08-29T03:56:00.037Z,5.00
2022-08-29T03:58:27.579Z,5.87
2022-08-29T04:00:55.117Z,6.87
2022-08-29T04:03:30.820Z,9.23
2022-08-29T04:05:59.267Z,6.00
2022-08-29T04:08:26.789Z,4.67
2022-08-29T04:10:55.875Z,4.27
2022-08-29T04:13:23.408Z,6.40
2022-08-29T04:15:51.018Z,4.60
2022-08-29T04:18:21.567Z,5.53
2022-08-29T04:20:50.249Z,4.60
2022-08-29T04:23:17.892Z,6.03
2022-08-29T04:25:45.837Z,7.40
2022-08-29T04:28:15.547Z,5.40
2022-08-29T04:30:51.198Z,5.13
2022-08-29T04:33:22.747Z,5.67
2022-08-29T04:35:50.923Z,6.37
2022-08-29T04:38:18.675Z,5.47
2022-08-29T04:40:46.246Z,6.80
2022-08-29T04:43:15.134Z,7.07
2022-08-29T04:45:42.669Z,6.37
2022-08-29T04:48:10.752Z,8.00
2022-08-29T04:50:38.947Z,3.30
2022-08-29T04:53:06.451Z,5.30
2022-08-29T04:55:34.037Z,7.10
2022-08-29T04:58:01.637Z,6.10
2022-08-29T05:00:32.871Z,6.50
2022-08-29T05:03:00.534Z,11.33
2022-08-29T05:05:28.755Z,5.57
2022-08-29T05:07:56.330Z,3.77
2022-08-29T05:10:24.114Z,7.47
2022-08-29T05:12:51.603Z,5.63
2022-08-29T05:15:20.004Z,4.40
2022-08-29T05:17:49.119Z,4.60
2022-08-29T05:20:16.954Z,7.53
2022-08-29T05:22:44.577Z,6.07
2022-08-29T05:25:18.021Z,7.30
2022-08-29T05:27:47.156Z,5.70
2022-08-29T05:30:16.429Z,7.67
2022-08-29T05:33:01.002Z,4.67
2022-08-29T05:35:28.521Z,6.93
2022-08-29T05:37:56.011Z,6.27
2022-08-29T05:40:23.642Z,6.67
2022-08-29T05:42:51.181Z,5.13
2022-08-29T05:45:20.910Z,6.60
2022-08-29T05:47:48.404Z,4.47
2022-08-29T05:50:18.089Z,4.60
2022-08-29T05:52:46.272Z,10.73
2022-08-29T05:55:13.948Z,4.13
2022-08-29T05:57:41.461Z,7.30
2022-08-29T06:00:10.269Z,14.27
2022-08-29T06:02:40.560Z,13.63
2022-08-29T06:05:08.956Z,5.03
2022-08-29T06:07:39.522Z,5.07
2022-08-29T06:10:08.864Z,4.90
2022-08-29T06:12:37.098Z,7.30
2022-08-29T06:15:05.094Z,3.60
2022-08-29T06:17:32.606Z,7.87
2022-08-29T06:20:00.165Z,6.67
2022-08-29T06:22:27.709Z,5.93
2022-08-29T06:24:57.765Z,8.90
2022-08-29T06:27:26.005Z,6.67
2022-08-29T06:29:53.578Z,7.00
2022-08-29T06:32:21.335Z,6.00
2022-08-29T06:34:49.001Z,3.50
2022-08-29T06:37:16.700Z,4.70
2022-08-29T06:39:44.201Z,5.73
2022-08-29T06:42:13.008Z,6.60
2022-08-29T06:44:44.410Z,8.63
2022-08-29T06:47:12.185Z,4.80
2022-08-29T06:49:39.657Z,8.93
2022-08-29T06:52:07.327Z,7.90
2022-08-29T06:54:35.258Z,13.40
2022-08-29T06:57:03.649Z,7.30
2022-08-29T06:59:32.522Z,3.67
2022-08-29T07:02:00.116Z,9.50
2022-08-29T07:04:29.087Z,9.43
2022-08-29T07:06:56.619Z,10.27
2022-08-29T07:09:25.603Z,10.70
2022-08-29T07:11:53.915Z,11.60
2022-08-29T07:14:21.445Z,6.27
2022-08-29T07:16:50.774Z,8.90
2022-08-29T07:19:18.291Z,6.70
2022-08-29T07:21:45.787Z,6.93
2022-08-29T07:24:13.417Z,8.47
2022-08-29T07:26:44.688Z,8.50
2022-08-29T07:29:14.617Z,8.80
2022-08-29T07:31:42.242Z,9.65
2022-08-29T07:34:11.354Z,22.40
2022-08-29T07:36:39.283Z,7.10
2022-08-29T07:39:09.230Z,12.63
2022-08-29T07:41:38.291Z,7.03
2022-08-29T07:44:06.002Z,13.87
2022-08-29T07:46:33.757Z,9.67
2022-08-29T07:49:01.888Z,7.50
2022-08-29T07:51:30.900Z,5.97
2022-08-29T07:53:58.761Z,8.83
2022-08-29T07:56:28.362Z,12.80
2022-08-29T07:58:57.232Z,6.93
2022-08-29T08:01:25.464Z,8.80
2022-08-29T08:03:54.482Z,7.93
2022-08-29T08:06:24.418Z,9.77
2022-08-29T08:08:56.979Z,21.17
2022-08-29T08:11:26.387Z,16.13
2022-08-29T08:13:54.990Z,15.60
2022-08-29T08:16:28.687Z,12.47
2022-08-29T08:18:57.062Z,12.70
2022-08-29T08:21:26.657Z,12.40
2022-08-29T08:23:55.813Z,11.33
2022-08-29T08:26:23.808Z,19.63
2022-08-29T08:28:51.695Z,15.43
2022-08-29T08:31:20.310Z,13.13
2022-08-29T08:33:48.258Z,12.77
2022-08-29T08:36:19.333Z,20.80
2022-08-29T08:38:47.067Z,12.40
2022-08-29T08:41:28.498Z,16.43
2022-08-29T08:43:58.052Z,16.90
2022-08-29T08:46:31.675Z,11.00
2022-08-29T08:49:03.432Z,10.83
2022-08-29T08:51:34.938Z,13.50
2022-08-29T08:54:08.268Z,9.80
2022-08-29T08:56:43.296Z,13.13
2022-08-29T08:59:16.166Z,12.27
2022-08-29T09:01:47.120Z,15.00
2022-08-29T09:04:43.355Z,10.30
2022-08-29T09:07:23.710Z,14.40
2022-08-29T09:10:04.177Z,10.87
2022-08-29T09:12:49.868Z,12.03
2022-08-29T09:15:22.561Z,16.93
2022-08-29T09:17:56.464Z,13.50
2022-08-29T09:20:40.437Z,13.10
2022-08-29T09:23:19.421Z,10.10
2022-08-29T09:25:47.495Z,9.90
2022-08-29T09:28:19.661Z,10.87
2022-08-29T09:31:19.148Z,15.33
2022-08-29T09:33:49.909Z,12.30
2022-08-29T09:36:47.528Z,9.90
2022-08-29T09:39:18.970Z,11.77
2022-08-29T09:41:49.781Z,15.13
2022-08-29T09:44:24.908Z,13.47
2022-08-29T09:47:08.610Z,11.07
2022-08-29T09:49:41.495Z,16.73
2022-08-29T09:52:13.218Z,11.00
2022-08-29T09:54:43.734Z,11.77
2022-08-29T09:57:21.046Z,13.33
2022-08-29T09:59:51.875Z,13.70
2022-08-29T10:02:25.142Z,11.67
2022-08-29T10:04:55.337Z,12.97
2022-08-29T10:07:25.636Z,12.03
2022-08-29T10:10:00.296Z,26.00
2022-08-29T10:12:36.516Z,8.87
2022-08-29T10:15:16.574Z,11.90
2022-08-29T10:18:18.532Z,7.40
2022-08-29T10:20:53.207Z,11.53
2022-08-29T10:23:28.326Z,11.30
2022-08-29T10:25:55.999Z,8.32
2022-08-29T10:28:32.894Z,9.90
2022-08-29T10:31:10.271Z,13.10
2022-08-29T10:34:10.244Z,7.53
2022-08-29T10:36:39.778Z,8.50
2022-08-29T10:39:14.249Z,14.10
2022-08-29T10:41:53.723Z,12.27
2022-08-29T10:44:30.745Z,13.77
2022-08-29T10:47:15.221Z,17.48
2022-08-29T10:49:55.522Z,10.13
2022-08-29T10:52:29.732Z,11.90
2022-08-29T10:55:09.090Z,13.77
2022-08-29T10:57:48.454Z,9.80
2022-08-29T11:00:19.657Z,18.52
2022-08-29T11:02:57.782Z,10.00
2022-08-29T11:05:32.860Z,6.33
2022-08-29T11:08:05.541Z,5.17
2022-08-29T11:10:40.360Z,8.90
2022-08-29T11:13:12.966Z,7.97
2022-08-29T11:15:44.469Z,5.60
2022-08-29T11:18:25.232Z,10.47
2022-08-29T11:20:56.478Z,7.93
2022-08-29T11:23:35.430Z,8.60
2022-08-29T11:26:09.694Z,7.53
2022-08-29T11:31:18.993Z,9.03
2022-08-29T11:33:56.429Z,5.90
2022-08-29T11:36:50.084Z,7.33
2022-08-29T11:39:48.103Z,11.17
2022-08-29T11:42:49.770Z,12.00
2022-08-29T11:45:10.994Z,6.40
2022-08-29T11:47:57.271Z,8.63
2022-08-29T11:50:32.520Z,5.78
2022-08-29T11:53:08.705Z,9.10
2022-08-29T11:55:38.412Z,8.73
2022-08-29T11:58:46.336Z,8.07
2022-08-29T12:01:54.264Z,8.93
2022-08-29T12:04:53.846Z,11.30
2022-08-29T12:07:25.390Z,8.00
2022-08-29T12:09:57.233Z,7.43
2022-08-29T12:12:45.266Z,7.60
2022-08-29T12:15:49.558Z,4.67
2022-08-29T12:18:50.669Z,5.97
2022-08-29T12:21:44.365Z,5.47
2022-08-29T12:24:30.429Z,5.47
2022-08-29T12:26:58.444Z,11.30
2022-08-29T12:29:30.909Z,6.77
2022-08-29T12:32:22.839Z,5.30
2022-08-29T12:35:22.640Z,5.90
2022-08-29T12:38:04.361Z,4.50
2022-08-29T12:40:51.186Z,4.87
2022-08-29T12:43:33.630Z,6.68
2022-08-29T12:46:04.386Z,4.50
2022-08-29T12:48:35.910Z,4.67
2022-08-29T12:51:05.734Z,6.30
2022-08-29T12:53:34.969Z,4.60
2022-08-29T12:56:04.637Z,3.57
2022-08-29T12:58:37.479Z,3.80
2022-08-29T13:01:08.023Z,4.87
2022-08-29T13:03:36.351Z,8.40
2022-08-29T13:06:08.720Z,6.90
2022-08-29T13:08:38.082Z,5.72
2022-08-29T13:11:07.813Z,4.03
2022-08-29T13:13:36.503Z,3.33
2022-08-29T13:16:07.887Z,4.37
2022-08-29T13:18:53.610Z,10.07
2022-08-29T13:21:26.513Z,3.97
2022-08-29T13:24:03.551Z,4.30
2022-08-29T13:26:33.930Z,7.00
2022-08-29T13:29:16.741Z,10.63
2022-08-29T13:31:44.722Z,5.20
2022-08-29T13:34:27.234Z,9.50
2022-08-29T13:37:03.314Z,4.03
2022-08-29T13:39:41.089Z,5.73
2022-08-29T13:42:31.933Z,8.43
2022-08-29T13:45:15.445Z,3.77
2022-08-29T13:47:50.777Z,4.70
2022-08-29T13:50:18.379Z,4.90
2022-08-29T13:52:47.318Z,5.53
2022-08-29T13:55:14.850Z,4.37
2022-08-29T13:57:51.417Z,6.57
2022-08-29T14:00:19.772Z,3.23
2022-08-29T14:02:59.659Z,3.17
2022-08-29T14:05:27.987Z,2.90
2022-08-29T14:07:56.821Z,2.83
2022-08-29T14:10:24.545Z,2.50
2022-08-29T14:12:52.114Z,9.13
2022-08-29T14:15:21.027Z,2.00
2022-08-29T14:17:49.055Z,2.93
2022-08-29T14:20:19.361Z,2.37
2022-08-29T14:22:48.019Z,2.03
2022-08-29T14:25:19.240Z,3.43
2022-08-29T14:27:48.278Z,2.30
2022-08-29T14:30:19.002Z,2.10
2022-08-29T14:32:46.616Z,2.30
2022-08-29T14:35:17.101Z,2.17
2022-08-29T14:37:53.723Z,2.67
2022-08-29T14:40:23.093Z,5.60
2022-08-29T14:42:53.204Z,4.50
2022-08-29T14:45:21.085Z,1.80
2022-08-29T14:47:48.657Z,2.13
2022-08-29T14:50:16.621Z,2.00
2022-08-29T14:52:44.794Z,2.53
2022-08-29T14:55:13.223Z,3.50
2022-08-29T14:57:42.515Z,2.13
2022-08-29T15:00:13.160Z,2.90
2022-08-29T15:02:41.015Z,2.57
2022-08-29T15:05:09.226Z,3.43
2022-08-29T15:07:36.782Z,2.10
2022-08-29T15:10:05.450Z,2.50
2022-08-29T15:12:33.357Z,2.80
2022-08-29T15:15:02.344Z,3.20
2022-08-29T15:17:29.912Z,2.03
2022-08-29T15:20:35.093Z,2.10
2022-08-29T15:22:45.041Z,5.50
2022-08-29T15:25:12.658Z,3.70
2022-08-29T15:27:40.259Z,1.70
2022-08-29T15:30:11.297Z,2.90
2022-08-29T15:32:39.083Z,1.50
2022-08-29T15:35:07.540Z,3.70
2022-08-29T15:37:41.831Z,1.97
2022-08-29T15:40:13.185Z,1.57
2022-08-29T15:42:41.303Z,3.67
2022-08-29T15:45:11.745Z,1.70
2022-08-29T15:47:40.440Z,3.37
2022-08-29T15:50:13.753Z,2.20
2022-08-29T15:52:41.243Z,1.77
2022-08-29T15:55:09.167Z,1.90
2022-08-29T15:57:39.575Z,2.10
2022-08-29T16:00:29.874Z,1.57
2022-08-29T16:03:03.789Z,1.47
2022-08-29T16:05:32.522Z,1.77
2022-08-29T16:08:03.146Z,2.00
2022-08-29T16:10:31.521Z,1.60
2022-08-29T16:12:59.078Z,3.60
2022-08-29T16:15:31.093Z,1.40
2022-08-29T16:17:59.815Z,2.00
2022-08-29T16:20:27.532Z,2.70
2022-08-29T16:22:55.139Z,2.60
2022-08-29T16:25:23.408Z,1.47
2022-08-29T16:27:51.482Z,1.40
2022-08-29T16:30:19.957Z,1.73
2022-08-29T16:32:50.755Z,1.57
2022-08-29T16:35:18.856Z,1.87
2022-08-29T16:37:51.350Z,1.60
2022-08-29T16:40:31.345Z,2.60
2022-08-29T16:42:58.993Z,1.90
2022-08-29T16:45:26.743Z,2.00
2022-08-29T16:47:57.687Z,3.13
2022-08-29T16:50:26.570Z,6.97
2022-08-29T16:52:54.800Z,2.07
2022-08-29T16:55:22.958Z,1.67
2022-08-29T16:58:04.537Z,2.60
2022-08-29T17:00:32.830Z,4.30
2022-08-29T17:03:01.888Z,3.30
2022-08-29T17:05:29.540Z,1.50
2022-08-29T17:07:56.025Z,3.70
2022-08-29T17:10:22.520Z,1.85
2022-08-29T17:12:49.124Z,6.78
2022-08-29T17:15:15.822Z,1.90
2022-08-29T17:17:43.343Z,2.37
2022-08-29T17:20:13.005Z,1.40
2022-08-29T17:22:40.892Z,1.57
2022-08-29T17:25:09.124Z,1.60
2022-08-29T17:27:36.809Z,1.50
2022-08-29T17:30:05.599Z,1.07
2022-08-29T17:32:33.148Z,1.40
2022-08-29T17:35:00.678Z,1.80
2022-08-29T17:37:35.971Z,1.20
2022-08-29T17:40:05.506Z,1.80
2022-08-29T17:42:34.093Z,1.30
2022-08-29T17:45:01.590Z,1.90
2022-08-29T17:47:29.175Z,4.90
2022-08-29T17:49:56.691Z,1.63
2022-08-29T17:52:24.197Z,2.10
2022-08-29T17:54:52.998Z,2.00
2022-08-29T17:57:20.519Z,1.47
2022-08-29T17:59:48.086Z,5.47
2022-08-29T18:02:16.259Z,3.10
2022-08-29T18:04:44.432Z,1.70
2022-08-29T18:07:11.926Z,2.63
2022-08-29T18:09:39.481Z,1.53
2022-08-29T18:12:09.219Z,1.40
2022-08-29T18:14:36.764Z,1.47
2022-08-29T18:17:04.431Z,1.30
2022-08-29T18:19:31.954Z,1.40
2022-08-29T18:21:59.439Z,1.50
2022-08-29T18:24:27.016Z,1.30
2022-08-29T18:26:54.669Z,1.40
2022-08-29T18:29:23.630Z,1.63
2022-08-29T18:31:51.158Z,2.27
2022-08-29T18:34:18.885Z,1.77
2022-08-29T18:36:49.314Z,2.33
2022-08-29T18:39:18.905Z,2.23
2022-08-29T18:41:49.607Z,1.60
2022-08-29T18:44:17.082Z,4.30
2022-08-29T18:46:48.264Z,2.23
2022-08-29T18:49:16.570Z,2.37
2022-08-29T18:51:44.530Z,10.27
2022-08-29T18:54:16.219Z,1.43
2022-08-29T18:56:46.657Z,1.70
2022-08-29T18:59:14.275Z,1.60
2022-08-29T19:01:42.978Z,1.70
2022-08-29T19:04:11.941Z,4.30
2022-08-29T19:06:39.682Z,1.67
2022-08-29T19:09:07.308Z,1.90
2022-08-29T19:11:34.837Z,2.50
2022-08-29T19:14:02.383Z,2.27
2022-08-29T19:16:30.789Z,3.93
2022-08-29T19:18:58.366Z,2.30
2022-08-29T19:21:26.317Z,1.60
2022-08-29T19:23:55.492Z,1.80
2022-08-29T19:26:28.325Z,1.57
2022-08-29T19:28:58.667Z,2.77
2022-08-29T19:31:28.925Z,5.27
2022-08-29T19:34:02.525Z,2.60
2022-08-29T19:36:34.836Z,1.77
2022-08-29T19:39:02.662Z,1.97
2022-08-29T19:41:31.065Z,3.10
2022-08-29T19:44:00.581Z,2.40
2022-08-29T19:46:32.071Z,1.80
2022-08-29T19:48:59.863Z,2.15
2022-08-29T19:51:29.684Z,2.07
2022-08-29T19:53:59.093Z,2.50
2022-08-29T19:56:28.419Z,3.17
2022-08-29T19:58:56.280Z,2.33
2022-08-29T20:01:28.626Z,2.27
2022-08-29T20:03:56.583Z,1.90
2022-08-29T20:06:27.678Z,3.07
2022-08-29T20:09:03.028Z,1.90
2022-08-29T20:11:43.828Z,3.60
2022-08-29T20:14:17.751Z,1.97
2022-08-29T20:16:46.532Z,1.70
2022-08-29T20:19:14.867Z,1.40
2022-08-29T20:21:44.845Z,1.40
2022-08-29T20:24:15.686Z,3.27
2022-08-29T20:26:47.898Z,2.10
2022-08-29T20:29:16.971Z,1.57
2022-08-29T20:31:45.520Z,1.27
2022-08-29T20:34:13.705Z,1.23
2022-08-29T20:36:59.561Z,1.60
2022-08-29T20:39:29.013Z,2.50
2022-08-29T20:41:59.027Z,2.03
2022-08-29T20:44:33.820Z,1.57
2022-08-29T20:47:01.984Z,1.20
2022-08-29T20:49:31.691Z,4.23
2022-08-29T20:52:02.591Z,1.17
2022-08-29T20:54:32.339Z,1.30
2022-08-29T20:57:00.034Z,1.80
2022-08-29T20:59:31.468Z,1.10
2022-08-29T21:02:02.959Z,1.00
2022-08-29T21:04:52.335Z,1.23
2022-08-29T21:07:20.671Z,3.33
2022-08-29T21:09:51.607Z,1.17
2022-08-29T21:12:20.379Z,1.20
2022-08-29T21:14:48.209Z,1.40
2022-08-29T21:17:16.477Z,1.10
2022-08-29T21:19:44.120Z,1.43
2022-08-29T21:22:13.858Z,2.17
2022-08-29T21:24:42.179Z,1.40
2022-08-29T21:27:11.580Z,2.37
2022-08-29T21:29:42.523Z,1.60
2022-08-29T21:32:10.245Z,1.20
2022-08-29T21:34:37.823Z,1.40
2022-08-29T21:37:05.518Z,1.40
2022-08-29T21:39:33.146Z,1.20
2022-08-29T21:42:02.968Z,1.10
2022-08-29T21:44:32.044Z,1.40
2022-08-29T21:46:59.670Z,1.83
2022-08-29T21:49:27.257Z,1.30
2022-08-29T21:51:54.983Z,1.60
2022-08-29T21:54:22.739Z,1.90
2022-08-29T21:56:50.327Z,0.87
2022-08-29T21:59:19.819Z,1.30
2022-08-29T22:01:52.688Z,1.30
2022-08-29T22:04:28.092Z,1.20
2022-08-29T22:06:57.489Z,4.27
2022-08-29T22:09:25.609Z,0.93
2022-08-29T22:11:53.264Z,1.10
2022-08-29T22:14:20.865Z,1.30
2022-08-29T22:16:48.758Z,1.07
2022-08-29T22:19:18.307Z,1.03
2022-08-29T22:21:48.568Z,1.00
2022-08-29T22:24:17.762Z,0.90
2022-08-29T22:26:45.996Z,1.00
2022-08-29T22:29:15.780Z,2.27
2022-08-29T22:31:44.354Z,1.17
2022-08-29T22:34:14.821Z,0.93
2022-08-29T22:36:43.116Z,1.20
2022-08-29T22:39:11.186Z,1.10
2022-08-29T22:41:38.897Z,1.77
2022-08-29T22:46:55.389Z,1.20
2022-08-29T22:49:27.624Z,1.00
2022-08-29T22:52:00.746Z,1.10
2022-08-29T22:54:37.392Z,1.10
2022-08-29T22:57:07.275Z,1.33
2022-08-29T22:59:35.942Z,1.07
2022-08-29T23:02:04.064Z,1.30
2022-08-29T23:04:33.400Z,1.00
2022-08-29T23:07:01.044Z,1.47
2022-08-29T23:09:28.770Z,1.53
2022-08-29T23:12:02.680Z,2.50
2022-08-29T23:14:32.565Z,1.20
2022-08-29T23:17:00.047Z,1.20
2022-08-29T23:19:27.572Z,1.77
2022-08-29T23:21:57.519Z,1.37
2022-08-29T23:24:26.712Z,2.67
2022-08-29T23:26:54.340Z,1.10
2022-08-29T23:29:21.903Z,1.93
2022-08-29T23:31:49.488Z,3.70
2022-08-29T23:34:17.126Z,1.53
2022-08-29T23:36:44.665Z,1.87
2022-08-29T23:39:13.546Z,1.83
2022-08-29T23:41:41.192Z,1.40
2022-08-29T23:44:08.802Z,1.80
2022-08-29T23:46:37.913Z,1.57
2022-08-29T23:49:06.782Z,1.73
2022-08-29T23:51:34.412Z,1.43
2022-08-29T23:54:01.933Z,1.03
2022-08-29T23:56:31.659Z,1.53
2022-08-29T23:58:59.218Z,1.03
